sensor_id;sensor_type;location;lat;lon;timestamp;pressure;altitude;pressure_sealevel;temperature;humidity
77871;BME280;67067;46.850;7.578;2023-08-30T00:00:59;94814.81;;;10.32;56.75
77871;BME280;67067;46.850;7.578;2023-08-30T00:02:01;94814.06;;;10.42;56.56
77871;BME280;67067;46.850;7.578;2023-08-30T00:03:05;94822.00;;;10.47;56.36
77871;BME280;67067;46.850;7.578;2023-08-30T00:04:07;94815.66;;;10.43;56.55
77871;BME280;67067;46.850;7.578;2023-08-30T00:05:09;94813.78;;;10.43;56.70
77871;BME280;67067;46.850;7.578;2023-08-30T00:06:13;94812.19;;;10.42;56.58
77871;BME280;67067;46.850;7.578;2023-08-30T00:07:15;94818.84;;;10.45;56.68
77871;BME280;67067;46.850;7.578;2023-08-30T00:08:17;94814.31;;;10.40;56.86
77871;BME280;67067;46.850;7.578;2023-08-30T00:09:24;94814.84;;;10.42;56.74
77871;BME280;67067;46.850;7.578;2023-08-30T00:10:28;94820.66;;;10.39;56.76
77871;BME280;67067;46.850;7.578;2023-08-30T00:11:30;94815.06;;;10.30;56.92
77871;BME280;67067;46.850;7.578;2023-08-30T00:12:36;94819.34;;;10.42;56.68
77871;BME280;67067;46.850;7.578;2023-08-30T00:13:37;94817.19;;;10.28;56.79
77871;BME280;67067;46.850;7.578;2023-08-30T00:14:39;94821.19;;;10.41;56.68
77871;BME280;67067;46.850;7.578;2023-08-30T00:15:45;94820.13;;;10.42;56.74
77871;BME280;67067;46.850;7.578;2023-08-30T00:16:47;94822.78;;;10.37;57.19
77871;BME280;67067;46.850;7.578;2023-08-30T00:17:49;94820.34;;;10.25;57.23
77871;BME280;67067;46.850;7.578;2023-08-30T00:18:53;94821.19;;;10.36;57.15
77871;BME280;67067;46.850;7.578;2023-08-30T00:19:55;94819.03;;;10.28;57.39
77871;BME280;67067;46.850;7.578;2023-08-30T00:20:57;94828.88;;;10.43;57.09
77871;BME280;67067;46.850;7.578;2023-08-30T00:21:59;94826.50;;;10.46;57.10
77871;BME280;67067;46.850;7.578;2023-08-30T00:23:00;94830.78;;;10.52;56.87
77871;BME280;67067;46.850;7.578;2023-08-30T00:24:02;94823.59;;;10.43;56.92
77871;BME280;67067;46.850;7.578;2023-08-30T00:25:04;94826.03;;;10.55;56.78
77871;BME280;67067;46.850;7.578;2023-08-30T00:26:05;94830.53;;;10.49;56.73
77871;BME280;67067;46.850;7.578;2023-08-30T00:27:12;94829.19;;;10.57;56.59
77871;BME280;67067;46.850;7.578;2023-08-30T00:28:14;94824.97;;;10.61;56.38
77871;BME280;67067;46.850;7.578;2023-08-30T00:29:16;94816.78;;;10.62;56.46
77871;BME280;67067;46.850;7.578;2023-08-30T00:30:17;94821.25;;;10.51;56.98
77871;BME280;67067;46.850;7.578;2023-08-30T00:31:19;94824.44;;;10.59;56.69
77871;BME280;67067;46.850;7.578;2023-08-30T00:32:21;94819.44;;;10.62;56.48
77871;BME280;67067;46.850;7.578;2023-08-30T00:33:23;94822.63;;;10.64;56.62
77871;BME280;67067;46.850;7.578;2023-08-30T00:34:25;94818.09;;;10.55;56.56
77871;BME280;67067;46.850;7.578;2023-08-30T00:35:27;94821.81;;;10.64;56.54
77871;BME280;67067;46.850;7.578;2023-08-30T00:36:28;94814.91;;;10.52;56.72
77871;BME280;67067;46.850;7.578;2023-08-30T00:37:30;94815.97;;;10.62;56.70
77871;BME280;67067;46.850;7.578;2023-08-30T00:38:32;94815.97;;;10.57;56.57
77871;BME280;67067;46.850;7.578;2023-08-30T00:39:37;94810.16;;;10.65;56.55
77871;BME280;67067;46.850;7.578;2023-08-30T00:40:39;94815.47;;;10.70;56.41
77871;BME280;67067;46.850;7.578;2023-08-30T00:41:41;94810.44;;;10.74;56.29
77871;BME280;67067;46.850;7.578;2023-08-30T00:42:45;94813.34;;;10.72;56.32
77871;BME280;67067;46.850;7.578;2023-08-30T00:43:47;94808.56;;;10.69;56.45
77871;BME280;67067;46.850;7.578;2023-08-30T00:44:49;94808.31;;;10.55;56.80
77871;BME280;67067;46.850;7.578;2023-08-30T00:45:51;94810.44;;;10.68;56.42
77871;BME280;67067;46.850;7.578;2023-08-30T00:46:54;94814.41;;;10.71;56.44
77871;BME280;67067;46.850;7.578;2023-08-30T00:47:58;94813.31;;;10.62;56.53
77871;BME280;67067;46.850;7.578;2023-08-30T00:49:00;94814.16;;;10.73;56.35
77871;BME280;67067;46.850;7.578;2023-08-30T00:50:02;94810.16;;;10.70;56.30
77871;BME280;67067;46.850;7.578;2023-08-30T00:51:04;94810.69;;;10.72;56.64
77871;BME280;67067;46.850;7.578;2023-08-30T00:52:09;94805.16;;;10.74;56.59
77871;BME280;67067;46.850;7.578;2023-08-30T00:53:15;94816.56;;;10.74;56.62
77871;BME280;67067;46.850;7.578;2023-08-30T00:54:19;94799.63;;;10.75;56.47
77871;BME280;67067;46.850;7.578;2023-08-30T00:55:20;94809.09;;;10.66;56.67
77871;BME280;67067;46.850;7.578;2023-08-30T00:56:22;94809.94;;;10.77;56.45
77871;BME280;67067;46.850;7.578;2023-08-30T00:57:24;94799.88;;;10.79;56.47
77871;BME280;67067;46.850;7.578;2023-08-30T00:58:26;94803.84;;;10.81;56.54
77871;BME280;67067;46.850;7.578;2023-08-30T00:59:29;94795.91;;;10.81;56.51
77871;BME280;67067;46.850;7.578;2023-08-30T01:00:32;94801.75;;;10.84;56.47
77871;BME280;67067;46.850;7.578;2023-08-30T01:01:34;94798.81;;;10.80;56.70
77871;BME280;67067;46.850;7.578;2023-08-30T01:02:36;94801.75;;;10.84;56.84
77871;BME280;67067;46.850;7.578;2023-08-30T01:03:38;94792.75;;;10.85;56.71
77871;BME280;67067;46.850;7.578;2023-08-30T01:04:40;94793.78;;;10.84;56.86
77871;BME280;67067;46.850;7.578;2023-08-30T01:05:42;94787.16;;;10.81;56.88
77871;BME280;67067;46.850;7.578;2023-08-30T01:06:45;94790.88;;;10.80;56.99
77871;BME280;67067;46.850;7.578;2023-08-30T01:07:46;94788.22;;;10.80;57.10
77871;BME280;67067;46.850;7.578;2023-08-30T01:08:50;94789.56;;;10.77;57.13
77871;BME280;67067;46.850;7.578;2023-08-30T01:09:53;94788.22;;;10.80;56.95
77871;BME280;67067;46.850;7.578;2023-08-30T01:11:15;94783.69;;;10.60;57.42
77871;BME280;67067;46.850;7.578;2023-08-30T01:12:43;94785.28;;;10.71;57.27
77871;BME280;67067;46.850;7.578;2023-08-30T01:13:56;94781.06;;;10.70;57.39
77871;BME280;67067;46.850;7.578;2023-08-30T01:15:06;94782.63;;;10.71;57.24
77871;BME280;67067;46.850;7.578;2023-08-30T01:16:11;94778.69;;;10.74;57.37
77871;BME280;67067;46.850;7.578;2023-08-30T01:17:16;94779.50;;;10.74;57.12
77871;BME280;67067;46.850;7.578;2023-08-30T01:18:18;94771.81;;;10.73;57.29
77871;BME280;67067;46.850;7.578;2023-08-30T01:19:41;94777.88;;;10.63;57.32
77871;BME280;67067;46.850;7.578;2023-08-30T01:20:44;94778.38;;;10.55;57.61
77871;BME280;67067;46.850;7.578;2023-08-30T01:22:04;94776.81;;;10.64;57.26
77871;BME280;67067;46.850;7.578;2023-08-30T01:23:18;94781.84;;;10.65;57.22
77871;BME280;67067;46.850;7.578;2023-08-30T01:24:29;94777.34;;;10.66;57.43
77871;BME280;67067;46.850;7.578;2023-08-30T01:27:59;94779.19;;;10.50;57.64
77871;BME280;67067;46.850;7.578;2023-08-30T01:29:08;94770.47;;;10.65;57.70
77871;BME280;67067;46.850;7.578;2023-08-30T01:30:11;94778.94;;;10.67;57.50
77871;BME280;67067;46.850;7.578;2023-08-30T01:31:15;94773.09;;;10.65;57.34
77871;BME280;67067;46.850;7.578;2023-08-30T01:32:17;94777.63;;;10.64;57.43
77871;BME280;67067;46.850;7.578;2023-08-30T01:33:22;94772.31;;;10.64;57.51
77871;BME280;67067;46.850;7.578;2023-08-30T01:34:25;94780.28;;;10.64;57.61
77871;BME280;67067;46.850;7.578;2023-08-30T01:35:28;94772.06;;;10.66;57.62
77871;BME280;67067;46.850;7.578;2023-08-30T01:36:34;94774.44;;;10.62;57.38
77871;BME280;67067;46.850;7.578;2023-08-30T01:37:37;94777.34;;;10.66;57.27
77871;BME280;67067;46.850;7.578;2023-08-30T01:38:41;94768.34;;;10.67;57.42
77871;BME280;67067;46.850;7.578;2023-08-30T01:39:43;94774.69;;;10.66;57.50
77871;BME280;67067;46.850;7.578;2023-08-30T01:40:51;94776.56;;;10.65;57.63
77871;BME280;67067;46.850;7.578;2023-08-30T01:41:53;94779.47;;;10.64;57.47
77871;BME280;67067;46.850;7.578;2023-08-30T01:43:00;94776.56;;;10.65;57.51
77871;BME280;67067;46.850;7.578;2023-08-30T01:44:10;94777.34;;;10.66;57.33
77871;BME280;67067;46.850;7.578;2023-08-30T01:45:15;94777.88;;;10.68;57.35
77871;BME280;67067;46.850;7.578;2023-08-30T01:46:18;94775.22;;;10.68;57.41
77871;BME280;67067;46.850;7.578;2023-08-30T01:47:22;94776.28;;;10.72;57.31
77871;BME280;67067;46.850;7.578;2023-08-30T01:48:27;94777.34;;;10.71;57.39
77871;BME280;67067;46.850;7.578;2023-08-30T01:49:31;94781.09;;;10.75;57.28
77871;BME280;67067;46.850;7.578;2023-08-30T01:50:34;94777.34;;;10.71;57.28
77871;BME280;67067;46.850;7.578;2023-08-30T01:51:36;94773.91;;;10.71;57.08
77871;BME280;67067;46.850;7.578;2023-08-30T01:52:39;94776.28;;;10.72;57.09
77871;BME280;67067;46.850;7.578;2023-08-30T01:53:43;94779.50;;;10.74;57.20
77871;BME280;67067;46.850;7.578;2023-08-30T01:54:48;94777.91;;;10.73;57.23
77871;BME280;67067;46.850;7.578;2023-08-30T01:55:52;94768.91;;;10.74;57.21
77871;BME280;67067;46.850;7.578;2023-08-30T01:56:54;94781.59;;;10.72;57.26
77871;BME280;67067;46.850;7.578;2023-08-30T01:58:00;94778.94;;;10.72;57.08
77871;BME280;67067;46.850;7.578;2023-08-30T01:59:02;94775.75;;;10.65;57.38
77871;BME280;67067;46.850;7.578;2023-08-30T02:00:04;94779.94;;;10.45;57.69
77871;BME280;67067;46.850;7.578;2023-08-30T02:01:16;94769.94;;;10.58;57.44
77871;BME280;67067;46.850;7.578;2023-08-30T02:02:18;94776.56;;;10.55;57.35
77871;BME280;67067;46.850;7.578;2023-08-30T02:03:19;94776.28;;;10.51;57.40
77871;BME280;67067;46.850;7.578;2023-08-30T02:04:21;94774.09;;;10.33;57.48
77871;BME280;67067;46.850;7.578;2023-08-30T02:05:26;94781.25;;;10.43;57.58
77871;BME280;67067;46.850;7.578;2023-08-30T02:06:36;94773.56;;;10.41;57.52
77871;BME280;67067;46.850;7.578;2023-08-30T02:07:54;94775.69;;;10.39;57.59
77871;BME280;67067;46.850;7.578;2023-08-30T02:09:22;94768.28;;;10.36;57.39
77871;BME280;67067;46.850;7.578;2023-08-30T02:10:34;94770.16;;;10.41;57.52
77871;BME280;67067;46.850;7.578;2023-08-30T02:11:37;94769.63;;;10.44;57.29
77871;BME280;67067;46.850;7.578;2023-08-30T02:12:46;94774.63;;;10.40;57.20
77871;BME280;67067;46.850;7.578;2023-08-30T02:13:52;94769.63;;;10.44;57.13
77871;BME280;67067;46.850;7.578;2023-08-30T02:14:54;94772.00;;;10.40;56.94
77871;BME280;67067;46.850;7.578;2023-08-30T02:15:59;94776.22;;;10.41;57.07
77871;BME280;67067;46.850;7.578;2023-08-30T02:17:02;94771.44;;;10.38;57.03
77871;BME280;67067;46.850;7.578;2023-08-30T02:18:05;94770.63;;;10.32;57.15
77871;BME280;67067;46.850;7.578;2023-08-30T02:19:08;94774.34;;;10.31;57.11
77871;BME280;67067;46.850;7.578;2023-08-30T02:20:09;94772.75;;;10.30;57.05
77871;BME280;67067;46.850;7.578;2023-08-30T02:21:14;94772.22;;;10.28;57.08
77871;BME280;67067;46.850;7.578;2023-08-30T02:22:16;94770.91;;;10.26;56.97
77871;BME280;67067;46.850;7.578;2023-08-30T02:23:20;94769.81;;;10.21;57.15
77871;BME280;67067;46.850;7.578;2023-08-30T02:24:24;94770.88;;;10.20;57.45
77871;BME280;67067;46.850;7.578;2023-08-30T02:25:25;94773.44;;;10.05;57.40
77871;BME280;67067;46.850;7.578;2023-08-30T02:26:28;94765.03;;;10.08;57.18
77871;BME280;67067;46.850;7.578;2023-08-30T02:27:31;94762.38;;;10.08;57.35
77871;BME280;67067;46.850;7.578;2023-08-30T02:28:33;94767.69;;;10.08;57.29
77871;BME280;67067;46.850;7.578;2023-08-30T02:29:39;94762.88;;;10.05;57.40
77871;BME280;67067;46.850;7.578;2023-08-30T02:30:41;94761.78;;;9.90;57.83
77871;BME280;67067;46.850;7.578;2023-08-30T02:31:45;94766.56;;;9.99;57.57
77871;BME280;67067;46.850;7.578;2023-08-30T02:32:47;94769.44;;;9.87;57.80
77871;BME280;67067;46.850;7.578;2023-08-30T02:33:50;94767.63;;;9.98;57.70
77871;BME280;67067;46.850;7.578;2023-08-30T02:34:53;94763.91;;;9.99;57.53
77871;BME280;67067;46.850;7.578;2023-08-30T02:35:55;94763.91;;;9.99;57.30
77871;BME280;67067;46.850;7.578;2023-08-30T02:36:58;94763.38;;;9.97;57.43
77871;BME280;67067;46.850;7.578;2023-08-30T02:38:02;94759.97;;;9.96;57.44
77871;BME280;67067;46.850;7.578;2023-08-30T02:39:07;94760.19;;;9.94;57.52
77871;BME280;67067;46.850;7.578;2023-08-30T02:40:09;94758.56;;;9.83;57.67
77871;BME280;67067;46.850;7.578;2023-08-30T02:41:15;94755.97;;;9.93;57.62
77871;BME280;67067;46.850;7.578;2023-08-30T02:42:17;94755.97;;;9.93;57.52
77871;BME280;67067;46.850;7.578;2023-08-30T02:43:19;94764.44;;;9.95;57.51
77871;BME280;67067;46.850;7.578;2023-08-30T02:44:20;94757.53;;;9.84;57.60
77871;BME280;67067;46.850;7.578;2023-08-30T02:45:22;94758.06;;;9.91;57.63
77871;BME280;67067;46.850;7.578;2023-08-30T02:46:27;94756.50;;;9.95;57.51
77871;BME280;67067;46.850;7.578;2023-08-30T02:47:29;94758.09;;;9.97;57.84
77871;BME280;67067;46.850;7.578;2023-08-30T02:48:33;94762.09;;;9.99;57.80
77871;BME280;67067;46.850;7.578;2023-08-30T02:49:35;94757.84;;;9.98;57.81
77871;BME280;67067;46.850;7.578;2023-08-30T02:50:40;94755.72;;;9.95;58.00
77871;BME280;67067;46.850;7.578;2023-08-30T02:51:41;94756.50;;;9.95;57.84
77871;BME280;67067;46.850;7.578;2023-08-30T02:52:43;94754.41;;;9.98;57.82
77871;BME280;67067;46.850;7.578;2023-08-30T02:53:45;94754.88;;;9.84;58.13
77871;BME280;67067;46.850;7.578;2023-08-30T02:54:49;94758.63;;;9.99;57.86
77871;BME280;67067;46.850;7.578;2023-08-30T02:55:51;94757.00;;;9.87;58.20
77871;BME280;67067;46.850;7.578;2023-08-30T02:56:53;94752.03;;;9.96;57.87
77871;BME280;67067;46.850;7.578;2023-08-30T02:57:55;94753.63;;;10.02;57.71
77871;BME280;67067;46.850;7.578;2023-08-30T02:58:57;94756.03;;;10.09;57.91
77871;BME280;67067;46.850;7.578;2023-08-30T02:59:58;94759.22;;;10.11;57.91
77871;BME280;67067;46.850;7.578;2023-08-30T03:01:01;94755.00;;;10.15;57.87
77871;BME280;67067;46.850;7.578;2023-08-30T03:02:04;94763.72;;;10.16;57.56
77871;BME280;67067;46.850;7.578;2023-08-30T03:03:06;94754.22;;;10.20;57.44
77871;BME280;67067;46.850;7.578;2023-08-30T03:04:08;94758.97;;;10.23;57.66
77871;BME280;67067;46.850;7.578;2023-08-30T03:05:10;94758.44;;;10.26;57.45
77871;BME280;67067;46.850;7.578;2023-08-30T03:06:14;94761.91;;;10.27;57.38
77871;BME280;67067;46.850;7.578;2023-08-30T03:07:16;94749.97;;;10.24;57.43
77871;BME280;67067;46.850;7.578;2023-08-30T03:08:18;94761.09;;;10.21;57.56
77871;BME280;67067;46.850;7.578;2023-08-30T03:09:19;94755.53;;;10.17;57.72
77871;BME280;67067;46.850;7.578;2023-08-30T03:10:21;94753.34;;;9.99;57.83
77871;BME280;67067;46.850;7.578;2023-08-30T03:11:23;94753.94;;;10.11;57.77
77871;BME280;67067;46.850;7.578;2023-08-30T03:12:26;94752.34;;;10.15;57.60
77871;BME280;67067;46.850;7.578;2023-08-30T03:13:27;94745.94;;;10.01;57.82
77871;BME280;67067;46.850;7.578;2023-08-30T03:14:29;94756.84;;;10.15;57.73
77871;BME280;67067;46.850;7.578;2023-08-30T03:15:31;94750.78;;;10.19;57.88
77871;BME280;67067;46.850;7.578;2023-08-30T03:16:36;94753.69;;;10.23;57.75
77871;BME280;67067;46.850;7.578;2023-08-30T03:17:39;94756.88;;;10.25;57.41
77871;BME280;67067;46.850;7.578;2023-08-30T03:18:44;94749.47;;;10.27;57.49
77871;BME280;67067;46.850;7.578;2023-08-30T03:19:48;94743.41;;;10.27;57.32
77871;BME280;67067;46.850;7.578;2023-08-30T03:21:01;94754.75;;;10.27;57.23
77871;BME280;67067;46.850;7.578;2023-08-30T03:22:09;94751.34;;;10.32;57.39
77871;BME280;67067;46.850;7.578;2023-08-30T03:23:13;94747.09;;;10.36;57.16
77871;BME280;67067;46.850;7.578;2023-08-30T03:24:15;94744.16;;;10.22;57.10
77871;BME280;67067;46.850;7.578;2023-08-30T03:25:17;94742.34;;;10.33;57.01
77871;BME280;67067;46.850;7.578;2023-08-30T03:26:21;94743.13;;;10.33;56.92
77871;BME280;67067;46.850;7.578;2023-08-30T03:27:24;94741.81;;;10.31;57.09
77871;BME280;67067;46.850;7.578;2023-08-30T03:28:25;94738.88;;;10.17;57.47
77871;BME280;67067;46.850;7.578;2023-08-30T03:29:29;94746.56;;;10.29;57.34
77871;BME280;67067;46.850;7.578;2023-08-30T03:30:31;94731.47;;;10.29;57.25
77871;BME280;67067;46.850;7.578;2023-08-30T03:31:33;94736.78;;;10.29;57.02
77871;BME280;67067;46.850;7.578;2023-08-30T03:32:36;94741.00;;;10.30;57.01
77871;BME280;67067;46.850;7.578;2023-08-30T03:33:39;94734.41;;;10.28;57.07
77871;BME280;67067;46.850;7.578;2023-08-30T03:34:46;94739.69;;;10.28;57.27
77871;BME280;67067;46.850;7.578;2023-08-30T03:35:48;94733.59;;;10.27;57.25
77871;BME280;67067;46.850;7.578;2023-08-30T03:36:50;94731.72;;;10.12;57.53
77871;BME280;67067;46.850;7.578;2023-08-30T03:37:55;94734.38;;;10.22;57.49
77871;BME280;67067;46.850;7.578;2023-08-30T03:38:57;94724.88;;;10.27;57.17
77871;BME280;67067;46.850;7.578;2023-08-30T03:40:01;94736.00;;;10.29;57.20
77871;BME280;67067;46.850;7.578;2023-08-30T03:41:06;94725.41;;;10.29;57.36
77871;BME280;67067;46.850;7.578;2023-08-30T03:42:08;94737.59;;;10.30;57.08
77871;BME280;67067;46.850;7.578;2023-08-30T03:43:12;94739.16;;;10.31;57.06
77871;BME280;67067;46.850;7.578;2023-08-30T03:44:14;94739.66;;;10.17;57.38
77871;BME280;67067;46.850;7.578;2023-08-30T03:45:15;94740.75;;;10.27;56.80
77871;BME280;67067;46.850;7.578;2023-08-30T03:46:17;94740.22;;;10.30;56.82
77871;BME280;67067;46.850;7.578;2023-08-30T03:47:19;94742.88;;;10.30;56.74
77871;BME280;67067;46.850;7.578;2023-08-30T03:48:21;94739.94;;;10.26;56.78
77871;BME280;67067;46.850;7.578;2023-08-30T03:49:24;94747.09;;;10.26;56.55
77871;BME280;67067;46.850;7.578;2023-08-30T03:50:29;94744.16;;;10.22;56.73
77871;BME280;67067;46.850;7.578;2023-08-30T03:51:31;94742.00;;;10.08;57.22
77871;BME280;67067;46.850;7.578;2023-08-30T03:52:33;94751.31;;;10.16;56.91
77871;BME280;67067;46.850;7.578;2023-08-30T03:53:34;94747.06;;;10.15;56.84
77871;BME280;67067;46.850;7.578;2023-08-30T03:54:39;94740.44;;;10.13;56.80
77871;BME280;67067;46.850;7.578;2023-08-30T03:55:41;94742.31;;;10.12;56.87
77871;BME280;67067;46.850;7.578;2023-08-30T03:56:43;94738.03;;;10.06;57.07
77871;BME280;67067;46.850;7.578;2023-08-30T03:57:48;94747.00;;;10.00;56.94
77871;BME280;67067;46.850;7.578;2023-08-30T03:58:49;94741.19;;;9.98;57.04
77871;BME280;67067;46.850;7.578;2023-08-30T03:59:51;94742.19;;;9.81;57.33
77871;BME280;67067;46.850;7.578;2023-08-30T04:00:53;94737.19;;;9.90;57.18
77871;BME280;67067;46.850;7.578;2023-08-30T04:01:55;94739.03;;;9.89;57.42
77871;BME280;67067;46.850;7.578;2023-08-30T04:02:57;94736.16;;;9.91;57.13
77871;BME280;67067;46.850;7.578;2023-08-30T04:03:59;94734.56;;;9.90;57.31
77871;BME280;67067;46.850;7.578;2023-08-30T04:05:01;94738.97;;;9.74;57.38
77871;BME280;67067;46.850;7.578;2023-08-30T04:06:03;94739.28;;;9.83;57.41
77871;BME280;67067;46.850;7.578;2023-08-30T04:07:05;94739.03;;;9.84;57.18
77871;BME280;67067;46.850;7.578;2023-08-30T04:08:08;94740.06;;;9.83;57.39
77871;BME280;67067;46.850;7.578;2023-08-30T04:09:10;94740.06;;;9.83;57.36
77871;BME280;67067;46.850;7.578;2023-08-30T04:10:11;94739.28;;;9.83;57.34
77871;BME280;67067;46.850;7.578;2023-08-30T04:11:14;94737.94;;;9.80;57.33
77871;BME280;67067;46.850;7.578;2023-08-30T04:12:16;94733.13;;;9.61;57.62
77871;BME280;67067;46.850;7.578;2023-08-30T04:13:18;94740.03;;;9.73;57.41
77871;BME280;67067;46.850;7.578;2023-08-30T04:14:20;94736.59;;;9.72;57.30
77871;BME280;67067;46.850;7.578;2023-08-30T04:15:25;94739.47;;;9.65;57.46
77871;BME280;67067;46.850;7.578;2023-08-30T04:16:27;94739.94;;;9.52;57.89
77871;BME280;67067;46.850;7.578;2023-08-30T04:17:29;94742.88;;;9.61;57.64
77871;BME280;67067;46.850;7.578;2023-08-30T04:18:30;94744.41;;;9.46;57.81
77871;BME280;67067;46.850;7.578;2023-08-30T04:19:32;94748.41;;;9.54;57.64
77871;BME280;67067;46.850;7.578;2023-08-30T04:20:36;94739.66;;;9.54;57.51
77871;BME280;67067;46.850;7.578;2023-08-30T04:21:38;94741.47;;;9.43;57.70
77871;BME280;67067;46.850;7.578;2023-08-30T04:22:39;94748.41;;;9.54;57.56
77871;BME280;67067;46.850;7.578;2023-08-30T04:23:44;94743.91;;;9.55;57.69
77871;BME280;67067;46.850;7.578;2023-08-30T04:24:48;94746.53;;;9.55;57.56
77871;BME280;67067;46.850;7.578;2023-08-30T04:25:50;94749.19;;;9.55;57.52
77871;BME280;67067;46.850;7.578;2023-08-30T04:26:54;94742.59;;;9.52;57.37
77871;BME280;67067;46.850;7.578;2023-08-30T04:27:57;94752.34;;;9.51;57.21
77871;BME280;67067;46.850;7.578;2023-08-30T04:29:01;94744.94;;;9.48;57.22
77871;BME280;67067;46.850;7.578;2023-08-30T04:30:09;94751.03;;;9.49;57.31
77871;BME280;67067;46.850;7.578;2023-08-30T04:31:11;94745.44;;;9.45;57.27
77871;BME280;67067;46.850;7.578;2023-08-30T04:32:13;94751.25;;;9.42;57.22
77871;BME280;67067;46.850;7.578;2023-08-30T04:33:15;94744.88;;;9.38;57.39
77871;BME280;67067;46.850;7.578;2023-08-30T04:34:16;94748.44;;;9.21;57.63
77871;BME280;67067;46.850;7.578;2023-08-30T04:35:18;94741.34;;;9.27;57.40
77871;BME280;67067;46.850;7.578;2023-08-30T04:36:20;94746.91;;;9.26;57.35
77871;BME280;67067;46.850;7.578;2023-08-30T04:37:23;94747.66;;;9.26;57.43
77871;BME280;67067;46.850;7.578;2023-08-30T04:38:26;94751.88;;;9.22;57.56
77871;BME280;67067;46.850;7.578;2023-08-30T04:39:28;94752.38;;;9.19;57.40
77871;BME280;67067;46.850;7.578;2023-08-30T04:40:31;94757.94;;;9.17;57.59
77871;BME280;67067;46.850;7.578;2023-08-30T04:41:34;94754.47;;;9.17;57.38
77871;BME280;67067;46.850;7.578;2023-08-30T04:42:39;94751.31;;;9.15;57.72
77871;BME280;67067;46.850;7.578;2023-08-30T04:43:41;94750.22;;;9.11;57.89
77871;BME280;67067;46.850;7.578;2023-08-30T04:44:43;94744.56;;;8.97;58.20
77871;BME280;67067;46.850;7.578;2023-08-30T04:45:47;94747.53;;;9.05;57.84
77871;BME280;67067;46.850;7.578;2023-08-30T04:46:49;94746.50;;;9.06;57.73
77871;BME280;67067;46.850;7.578;2023-08-30T04:47:54;94746.25;;;9.08;57.64
77871;BME280;67067;46.850;7.578;2023-08-30T04:48:58;94740.13;;;9.02;57.80
77871;BME280;67067;46.850;7.578;2023-08-30T04:50:03;94740.63;;;8.99;57.82
77871;BME280;67067;46.850;7.578;2023-08-30T04:51:05;94744.38;;;9.03;57.73
77871;BME280;67067;46.850;7.578;2023-08-30T04:52:07;94738.00;;;8.99;57.71
77871;BME280;67067;46.850;7.578;2023-08-30T04:53:09;94743.00;;;9.01;57.76
77871;BME280;67067;46.850;7.578;2023-08-30T04:54:11;94738.25;;;8.98;57.93
77871;BME280;67067;46.850;7.578;2023-08-30T04:55:13;94748.00;;;8.97;57.87
77871;BME280;67067;46.850;7.578;2023-08-30T04:56:15;94749.22;;;8.84;58.44
77871;BME280;67067;46.850;7.578;2023-08-30T04:57:19;94745.06;;;8.93;58.39
77871;BME280;67067;46.850;7.578;2023-08-30T04:58:21;94742.75;;;8.97;58.29
77871;BME280;67067;46.850;7.578;2023-08-30T04:59:23;94747.22;;;8.97;58.37
77871;BME280;67067;46.850;7.578;2023-08-30T05:00:28;94744.06;;;9.00;58.12
77871;BME280;67067;46.850;7.578;2023-08-30T05:01:33;94746.97;;;8.98;58.01
77871;BME280;67067;46.850;7.578;2023-08-30T05:02:35;94746.47;;;9.01;58.06
77871;BME280;67067;46.850;7.578;2023-08-30T05:03:41;94745.16;;;9.04;58.06
77871;BME280;67067;46.850;7.578;2023-08-30T05:04:46;94749.38;;;9.05;57.99
77871;BME280;67067;46.850;7.578;2023-08-30T05:05:47;94752.00;;;9.05;57.76
77871;BME280;67067;46.850;7.578;2023-08-30T05:06:50;94758.66;;;9.07;58.06
77871;BME280;67067;46.850;7.578;2023-08-30T05:07:52;94752.81;;;9.05;57.90
77871;BME280;67067;46.850;7.578;2023-08-30T05:08:54;94764.91;;;8.96;58.05
77871;BME280;67067;46.850;7.578;2023-08-30T05:09:56;94762.56;;;9.05;57.99
77871;BME280;67067;46.850;7.578;2023-08-30T05:10:58;94767.56;;;9.01;58.03
77871;BME280;67067;46.850;7.578;2023-08-30T05:12:07;94763.97;;;9.13;57.66
77871;BME280;67067;46.850;7.578;2023-08-30T05:13:11;94765.00;;;9.12;57.74
77871;BME280;67067;46.850;7.578;2023-08-30T05:14:16;94763.97;;;9.13;57.77
77871;BME280;67067;46.850;7.578;2023-08-30T05:15:19;94772.41;;;9.15;57.52
77871;BME280;67067;46.850;7.578;2023-08-30T05:16:21;94769.03;;;9.19;57.51
77871;BME280;67067;46.850;7.578;2023-08-30T05:17:24;94765.03;;;9.17;57.74
77871;BME280;67067;46.850;7.578;2023-08-30T05:18:31;94769.56;;;9.21;57.49
77871;BME280;67067;46.850;7.578;2023-08-30T05:19:32;94766.59;;;9.13;57.79
77871;BME280;67067;46.850;7.578;2023-08-30T05:20:38;94772.22;;;9.21;57.62
77871;BME280;67067;46.850;7.578;2023-08-30T05:21:40;94770.31;;;9.17;57.74
77871;BME280;67067;46.850;7.578;2023-08-30T05:22:42;94771.19;;;9.28;57.60
77871;BME280;67067;46.850;7.578;2023-08-30T05:23:43;94771.41;;;9.21;57.73
77871;BME280;67067;46.850;7.578;2023-08-30T05:24:46;94770.97;;;9.34;57.38
77871;BME280;67067;46.850;7.578;2023-08-30T05:25:50;94767.84;;;9.37;57.42
77871;BME280;67067;46.850;7.578;2023-08-30T05:26:52;94767.34;;;9.41;57.57
77871;BME280;67067;46.850;7.578;2023-08-30T05:27:56;94761.84;;;9.47;57.23
77871;BME280;67067;46.850;7.578;2023-08-30T05:28:57;94762.56;;;9.37;57.58
77871;BME280;67067;46.850;7.578;2023-08-30T05:30:00;94764.78;;;9.51;57.54
77871;BME280;67067;46.850;7.578;2023-08-30T05:31:04;94762.16;;;9.56;57.30
77871;BME280;67067;46.850;7.578;2023-08-30T05:32:32;94760.06;;;9.58;57.39
77871;BME280;67067;46.850;7.578;2023-08-30T05:33:40;94763.22;;;9.60;57.43
77871;BME280;67067;46.850;7.578;2023-08-30T05:35:17;94761.66;;;9.64;57.48
77871;BME280;67067;46.850;7.578;2023-08-30T05:36:40;94756.41;;;9.70;57.52
77871;BME280;67067;46.850;7.578;2023-08-30T05:38:03;94751.16;;;9.75;57.38
77871;BME280;67067;46.850;7.578;2023-08-30T05:39:29;94747.75;;;9.79;57.54
77871;BME280;67067;46.850;7.578;2023-08-30T05:40:31;94754.34;;;9.87;57.27
77871;BME280;67067;46.850;7.578;2023-08-30T05:41:34;94755.72;;;9.90;57.29
77871;BME280;67067;46.850;7.578;2023-08-30T05:42:36;94751.50;;;9.94;57.42
77871;BME280;67067;46.850;7.578;2023-08-30T05:43:37;94754.94;;;10.00;57.17